sensor_id;sensor_type;location;lat;lon;timestamp;P1;durP1;ratioP1;P2;durP2;ratioP2
74473;SDS011;62922;-6.168;106.796;2023-07-28T00:00:07;73.88;;;37.97;;
74473;SDS011;62922;-6.168;106.796;2023-07-28T00:02:33;76.18;;;38.33;;
74473;SDS011;62922;-6.168;106.796;2023-07-28T00:05:00;68.90;;;37.17;;
74473;SDS011;62922;-6.168;106.796;2023-07-28T00:07:26;71.00;;;39.47;;
74473;SDS011;62922;-6.168;106.796;2023-07-28T00:09:52;69.07;;;39.58;;
74473;SDS011;62922;-6.168;106.796;2023-07-28T00:12:21;73.53;;;38.97;;
74473;SDS011;62922;-6.168;106.796;2023-07-28T00:14:47;67.85;;;39.28;;
74473;SDS011;62922;-6.168;106.796;2023-07-28T00:17:16;67.55;;;37.80;;
74473;SDS011;62922;-6.168;106.796;2023-07-28T00:19:45;71.43;;;37.60;;
74473;SDS011;62922;-6.168;106.796;2023-07-28T00:22:12;64.32;;;37.78;;
74473;SDS011;62922;-6.168;106.796;2023-07-28T00:24:38;76.32;;;39.72;;
74473;SDS011;62922;-6.168;106.796;2023-07-28T00:27:04;78.90;;;39.58;;
74473;SDS011;62922;-6.168;106.796;2023-07-28T00:29:31;77.80;;;38.85;;
74473;SDS011;62922;-6.168;106.796;2023-07-28T00:31:57;65.03;;;37.63;;
74473;SDS011;62922;-6.168;106.796;2023-07-28T00:34:23;69.15;;;37.42;;
74473;SDS011;62922;-6.168;106.796;2023-07-28T00:36:53;69.97;;;38.58;;
74473;SDS011;62922;-6.168;106.796;2023-07-28T00:39:19;72.20;;;37.35;;
74473;SDS011;62922;-6.168;106.796;2023-07-28T00:41:45;63.42;;;34.70;;
74473;SDS011;62922;-6.168;106.796;2023-07-28T00:44:11;59.72;;;34.65;;
74473;SDS011;62922;-6.168;106.796;2023-07-28T00:46:40;59.33;;;33.92;;
74473;SDS011;62922;-6.168;106.796;2023-07-28T00:49:06;58.17;;;33.70;;
74473;SDS011;62922;-6.168;106.796;2023-07-28T00:51:32;59.95;;;31.63;;
74473;SDS011;62922;-6.168;106.796;2023-07-28T00:54:01;57.13;;;31.13;;
74473;SDS011;62922;-6.168;106.796;2023-07-28T00:56:31;57.92;;;29.58;;
74473;SDS011;62922;-6.168;106.796;2023-07-28T00:58:58;57.55;;;31.13;;
74473;SDS011;62922;-6.168;106.796;2023-07-28T01:01:24;53.22;;;32.20;;
74473;SDS011;62922;-6.168;106.796;2023-07-28T01:03:51;56.20;;;30.52;;
74473;SDS011;62922;-6.168;106.796;2023-07-28T01:06:20;55.17;;;30.10;;
74473;SDS011;62922;-6.168;106.796;2023-07-28T01:09:02;59.47;;;32.80;;
74473;SDS011;62922;-6.168;106.796;2023-07-28T01:11:35;50.75;;;29.80;;
74473;SDS011;62922;-6.168;106.796;2023-07-28T01:14:01;51.75;;;29.33;;
74473;SDS011;62922;-6.168;106.796;2023-07-28T01:16:27;57.30;;;29.80;;
74473;SDS011;62922;-6.168;106.796;2023-07-28T01:18:54;58.50;;;29.83;;
74473;SDS011;62922;-6.168;106.796;2023-07-28T01:21:25;53.10;;;30.20;;
74473;SDS011;62922;-6.168;106.796;2023-07-28T01:26:40;53.83;;;30.38;;
74473;SDS011;62922;-6.168;106.796;2023-07-28T01:29:06;54.10;;;30.23;;
74473;SDS011;62922;-6.168;106.796;2023-07-28T01:31:33;60.92;;;32.65;;
74473;SDS011;62922;-6.168;106.796;2023-07-28T01:34:00;74.45;;;32.72;;
74473;SDS011;62922;-6.168;106.796;2023-07-28T01:36:26;61.15;;;31.48;;
74473;SDS011;62922;-6.168;106.796;2023-07-28T01:38:52;60.75;;;30.88;;
74473;SDS011;62922;-6.168;106.796;2023-07-28T01:41:19;59.25;;;31.88;;
74473;SDS011;62922;-6.168;106.796;2023-07-28T01:43:45;58.72;;;30.08;;
74473;SDS011;62922;-6.168;106.796;2023-07-28T01:46:12;56.17;;;29.40;;
74473;SDS011;62922;-6.168;106.796;2023-07-28T01:48:38;61.55;;;29.95;;
74473;SDS011;62922;-6.168;106.796;2023-07-28T01:51:05;56.72;;;29.27;;
74473;SDS011;62922;-6.168;106.796;2023-07-28T01:53:33;48.72;;;28.02;;
74473;SDS011;62922;-6.168;106.796;2023-07-28T01:56:00;49.15;;;26.27;;
74473;SDS011;62922;-6.168;106.796;2023-07-28T01:58:26;47.72;;;26.38;;
74473;SDS011;62922;-6.168;106.796;2023-07-28T02:00:52;50.53;;;26.80;;
74473;SDS011;62922;-6.168;106.796;2023-07-28T02:03:19;50.05;;;26.50;;
74473;SDS011;62922;-6.168;106.796;2023-07-28T02:05:45;55.50;;;27.48;;
74473;SDS011;62922;-6.168;106.796;2023-07-28T02:08:12;51.55;;;27.42;;
74473;SDS011;62922;-6.168;106.796;2023-07-28T02:10:38;53.75;;;26.95;;
74473;SDS011;62922;-6.168;106.796;2023-07-28T02:13:04;43.05;;;24.65;;
74473;SDS011;62922;-6.168;106.796;2023-07-28T02:15:31;53.10;;;27.25;;
74473;SDS011;62922;-6.168;106.796;2023-07-28T02:17:57;44.30;;;25.45;;
74473;SDS011;62922;-6.168;106.796;2023-07-28T02:20:23;45.42;;;24.98;;
74473;SDS011;62922;-6.168;106.796;2023-07-28T02:22:50;48.72;;;25.63;;
74473;SDS011;62922;-6.168;106.796;2023-07-28T02:25:16;51.47;;;25.90;;
74473;SDS011;62922;-6.168;106.796;2023-07-28T02:27:42;52.45;;;26.95;;
74473;SDS011;62922;-6.168;106.796;2023-07-28T02:30:09;52.22;;;28.95;;
74473;SDS011;62922;-6.168;106.796;2023-07-28T02:32:36;56.67;;;28.85;;
74473;SDS011;62922;-6.168;106.796;2023-07-28T02:35:02;49.17;;;27.35;;
74473;SDS011;62922;-6.168;106.796;2023-07-28T02:37:29;58.70;;;29.55;;
74473;SDS011;62922;-6.168;106.796;2023-07-28T02:39:55;47.38;;;27.83;;
74473;SDS011;62922;-6.168;106.796;2023-07-28T02:42:22;45.72;;;27.88;;
74473;SDS011;62922;-6.168;106.796;2023-07-28T02:44:51;51.10;;;27.25;;
74473;SDS011;62922;-6.168;106.796;2023-07-28T02:47:17;56.38;;;29.08;;
74473;SDS011;62922;-6.168;106.796;2023-07-28T02:49:44;49.33;;;26.45;;
74473;SDS011;62922;-6.168;106.796;2023-07-28T02:52:11;47.10;;;26.90;;
74473;SDS011;62922;-6.168;106.796;2023-07-28T02:54:37;52.75;;;26.77;;
74473;SDS011;62922;-6.168;106.796;2023-07-28T02:57:05;46.17;;;25.98;;
74473;SDS011;62922;-6.168;106.796;2023-07-28T02:59:32;41.38;;;25.60;;
74473;SDS011;62922;-6.168;106.796;2023-07-28T03:01:58;48.83;;;25.90;;
74473;SDS011;62922;-6.168;106.796;2023-07-28T03:04:25;49.40;;;26.38;;
74473;SDS011;62922;-6.168;106.796;2023-07-28T03:06:51;43.25;;;24.52;;
74473;SDS011;62922;-6.168;106.796;2023-07-28T03:09:17;41.75;;;24.10;;
74473;SDS011;62922;-6.168;106.796;2023-07-28T03:11:44;50.60;;;24.95;;
74473;SDS011;62922;-6.168;106.796;2023-07-28T03:14:10;39.42;;;22.77;;
74473;SDS011;62922;-6.168;106.796;2023-07-28T03:16:38;43.65;;;23.05;;
74473;SDS011;62922;-6.168;106.796;2023-07-28T03:19:05;48.50;;;23.95;;
74473;SDS011;62922;-6.168;106.796;2023-07-28T03:21:31;38.03;;;22.67;;
74473;SDS011;62922;-6.168;106.796;2023-07-28T03:24:00;39.60;;;22.25;;
74473;SDS011;62922;-6.168;106.796;2023-07-28T03:26:28;46.92;;;23.17;;
74473;SDS011;62922;-6.168;106.796;2023-07-28T03:28:55;34.97;;;21.75;;
74473;SDS011;62922;-6.168;106.796;2023-07-28T03:31:21;45.75;;;21.92;;
74473;SDS011;62922;-6.168;106.796;2023-07-28T03:33:48;41.50;;;21.75;;
74473;SDS011;62922;-6.168;106.796;2023-07-28T03:36:14;50.08;;;22.95;;
74473;SDS011;62922;-6.168;106.796;2023-07-28T03:38:40;38.95;;;20.92;;
74473;SDS011;62922;-6.168;106.796;2023-07-28T03:41:07;34.80;;;20.08;;
74473;SDS011;62922;-6.168;106.796;2023-07-28T03:43:34;41.60;;;21.30;;
74473;SDS011;62922;-6.168;106.796;2023-07-28T03:46:00;33.38;;;20.25;;
74473;SDS011;62922;-6.168;106.796;2023-07-28T03:48:26;34.92;;;19.20;;
74473;SDS011;62922;-6.168;106.796;2023-07-28T03:50:55;38.42;;;20.42;;
74473;SDS011;62922;-6.168;106.796;2023-07-28T03:53:21;33.30;;;19.20;;
74473;SDS011;62922;-6.168;106.796;2023-07-28T03:55:48;34.30;;;18.65;;
74473;SDS011;62922;-6.168;106.796;2023-07-28T03:58:14;32.15;;;18.33;;
74473;SDS011;62922;-6.168;106.796;2023-07-28T04:00:41;35.38;;;19.17;;
74473;SDS011;62922;-6.168;106.796;2023-07-28T04:03:10;34.13;;;19.25;;
74473;SDS011;62922;-6.168;106.796;2023-07-28T04:05:36;29.58;;;18.45;;
74473;SDS011;62922;-6.168;106.796;2023-07-28T04:08:03;42.63;;;20.38;;
74473;SDS011;62922;-6.168;106.796;2023-07-28T04:10:29;38.35;;;19.77;;
74473;SDS011;62922;-6.168;106.796;2023-07-28T04:12:56;33.72;;;19.40;;
74473;SDS011;62922;-6.168;106.796;2023-07-28T04:15:22;36.40;;;20.45;;
74473;SDS011;62922;-6.168;106.796;2023-07-28T04:17:48;37.67;;;20.20;;
74473;SDS011;62922;-6.168;106.796;2023-07-28T04:20:14;35.95;;;18.98;;
74473;SDS011;62922;-6.168;106.796;2023-07-28T04:22:41;42.03;;;21.65;;
74473;SDS011;62922;-6.168;106.796;2023-07-28T04:25:07;39.45;;;21.42;;
74473;SDS011;62922;-6.168;106.796;2023-07-28T04:27:34;45.42;;;22.38;;
74473;SDS011;62922;-6.168;106.796;2023-07-28T04:30:00;47.45;;;23.33;;
74473;SDS011;62922;-6.168;106.796;2023-07-28T04:32:26;42.72;;;21.67;;
74473;SDS011;62922;-6.168;106.796;2023-07-28T04:34:53;46.83;;;22.25;;
74473;SDS011;62922;-6.168;106.796;2023-07-28T04:37:19;40.67;;;21.13;;
74473;SDS011;62922;-6.168;106.796;2023-07-28T04:39:45;35.75;;;21.23;;
74473;SDS011;62922;-6.168;106.796;2023-07-28T04:42:11;39.03;;;21.10;;
74473;SDS011;62922;-6.168;106.796;2023-07-28T04:44:38;41.20;;;22.15;;
74473;SDS011;62922;-6.168;106.796;2023-07-28T04:47:05;34.78;;;19.55;;
74473;SDS011;62922;-6.168;106.796;2023-07-28T04:49:32;39.60;;;21.42;;
74473;SDS011;62922;-6.168;106.796;2023-07-28T04:52:04;37.20;;;21.70;;
74473;SDS011;62922;-6.168;106.796;2023-07-28T04:54:30;37.78;;;20.73;;
74473;SDS011;62922;-6.168;106.796;2023-07-28T04:56:59;37.65;;;20.85;;
74473;SDS011;62922;-6.168;106.796;2023-07-28T04:59:26;39.92;;;20.92;;
74473;SDS011;62922;-6.168;106.796;2023-07-28T05:01:52;36.15;;;21.10;;
74473;SDS011;62922;-6.168;106.796;2023-07-28T05:04:18;41.63;;;22.02;;
74473;SDS011;62922;-6.168;106.796;2023-07-28T05:06:45;46.58;;;23.50;;
74473;SDS011;62922;-6.168;106.796;2023-07-28T05:09:11;42.10;;;23.00;;
74473;SDS011;62922;-6.168;106.796;2023-07-28T05:11:37;40.75;;;23.83;;
74473;SDS011;62922;-6.168;106.796;2023-07-28T05:14:03;37.60;;;22.02;;
74473;SDS011;62922;-6.168;106.796;2023-07-28T05:16:31;36.85;;;20.63;;
74473;SDS011;62922;-6.168;106.796;2023-07-28T05:19:00;38.28;;;21.48;;
74473;SDS011;62922;-6.168;106.796;2023-07-28T05:21:27;33.10;;;20.77;;
74473;SDS011;62922;-6.168;106.796;2023-07-28T05:23:54;42.63;;;23.17;;
74473;SDS011;62922;-6.168;106.796;2023-07-28T05:26:20;45.00;;;22.10;;
74473;SDS011;62922;-6.168;106.796;2023-07-28T05:28:46;45.45;;;23.38;;
74473;SDS011;62922;-6.168;106.796;2023-07-28T05:31:16;40.00;;;21.88;;
74473;SDS011;62922;-6.168;106.796;2023-07-28T05:33:45;43.55;;;21.73;;
74473;SDS011;62922;-6.168;106.796;2023-07-28T05:36:11;39.33;;;20.20;;
74473;SDS011;62922;-6.168;106.796;2023-07-28T05:38:38;37.65;;;19.73;;
74473;SDS011;62922;-6.168;106.796;2023-07-28T05:41:04;37.80;;;19.70;;
74473;SDS011;62922;-6.168;106.796;2023-07-28T05:43:31;38.45;;;19.75;;
74473;SDS011;62922;-6.168;106.796;2023-07-28T05:45:58;42.45;;;19.55;;
74473;SDS011;62922;-6.168;106.796;2023-07-28T05:48:25;36.90;;;19.77;;
74473;SDS011;62922;-6.168;106.796;2023-07-28T05:50:51;34.60;;;19.85;;
74473;SDS011;62922;-6.168;106.796;2023-07-28T05:53:21;36.00;;;18.25;;
74473;SDS011;62922;-6.168;106.796;2023-07-28T05:55:47;33.50;;;18.45;;
74473;SDS011;62922;-6.168;106.796;2023-07-28T05:58:14;41.90;;;19.10;;
74473;SDS011;62922;-6.168;106.796;2023-07-28T06:00:40;37.20;;;19.13;;
74473;SDS011;62922;-6.168;106.796;2023-07-28T06:03:09;35.95;;;18.58;;
74473;SDS011;62922;-6.168;106.796;2023-07-28T06:05:39;32.85;;;17.17;;
74473;SDS011;62922;-6.168;106.796;2023-07-28T06:08:06;35.95;;;19.27;;
74473;SDS011;62922;-6.168;106.796;2023-07-28T06:10:32;37.78;;;20.10;;
74473;SDS011;62922;-6.168;106.796;2023-07-28T06:13:02;31.67;;;18.40;;
74473;SDS011;62922;-6.168;106.796;2023-07-28T06:15:28;35.42;;;18.85;;
74473;SDS011;62922;-6.168;106.796;2023-07-28T06:17:54;36.05;;;19.77;;
74473;SDS011;62922;-6.168;106.796;2023-07-28T06:20:21;35.80;;;16.98;;
74473;SDS011;62922;-6.168;106.796;2023-07-28T06:22:47;31.00;;;17.02;;
74473;SDS011;62922;-6.168;106.796;2023-07-28T06:25:13;31.13;;;16.90;;
74473;SDS011;62922;-6.168;106.796;2023-07-28T06:27:40;29.10;;;17.15;;
74473;SDS011;62922;-6.168;106.796;2023-07-28T06:30:08;34.50;;;17.75;;
74473;SDS011;62922;-6.168;106.796;2023-07-28T06:32:34;38.88;;;18.20;;
74473;SDS011;62922;-6.168;106.796;2023-07-28T06:35:01;35.38;;;19.23;;
74473;SDS011;62922;-6.168;106.796;2023-07-28T06:37:30;32.13;;;17.63;;
74473;SDS011;62922;-6.168;106.796;2023-07-28T06:39:56;32.30;;;18.20;;
74473;SDS011;62922;-6.168;106.796;2023-07-28T06:42:23;28.17;;;16.15;;
74473;SDS011;62922;-6.168;106.796;2023-07-28T06:44:49;30.10;;;17.00;;
74473;SDS011;62922;-6.168;106.796;2023-07-28T06:47:16;33.70;;;18.13;;
74473;SDS011;62922;-6.168;106.796;2023-07-28T06:49:43;32.78;;;18.23;;
74473;SDS011;62922;-6.168;106.796;2023-07-28T06:52:10;34.67;;;17.35;;
74473;SDS011;62922;-6.168;106.796;2023-07-28T06:54:39;31.52;;;17.50;;
74473;SDS011;62922;-6.168;106.796;2023-07-28T06:57:06;31.02;;;17.67;;
74473;SDS011;62922;-6.168;106.796;2023-07-28T06:59:32;27.35;;;17.75;;
74473;SDS011;62922;-6.168;106.796;2023-07-28T07:01:58;32.00;;;18.02;;
74473;SDS011;62922;-6.168;106.796;2023-07-28T07:04:25;34.22;;;18.63;;
74473;SDS011;62922;-6.168;106.796;2023-07-28T07:06:51;30.70;;;17.63;;
74473;SDS011;62922;-6.168;106.796;2023-07-28T07:09:18;35.65;;;19.02;;
74473;SDS011;62922;-6.168;106.796;2023-07-28T07:11:45;36.78;;;18.63;;
74473;SDS011;62922;-6.168;106.796;2023-07-28T07:14:12;38.13;;;19.40;;
74473;SDS011;62922;-6.168;106.796;2023-07-28T07:16:39;35.75;;;19.88;;
74473;SDS011;62922;-6.168;106.796;2023-07-28T07:19:08;41.60;;;19.77;;
74473;SDS011;62922;-6.168;106.796;2023-07-28T07:21:34;30.75;;;18.10;;
74473;SDS011;62922;-6.168;106.796;2023-07-28T07:24:02;32.85;;;17.88;;
74473;SDS011;62922;-6.168;106.796;2023-07-28T07:26:29;37.30;;;18.27;;
74473;SDS011;62922;-6.168;106.796;2023-07-28T07:28:56;31.05;;;18.08;;
74473;SDS011;62922;-6.168;106.796;2023-07-28T07:31:23;35.60;;;18.08;;
74473;SDS011;62922;-6.168;106.796;2023-07-28T07:33:52;35.42;;;18.00;;
74473;SDS011;62922;-6.168;106.796;2023-07-28T07:36:18;32.90;;;17.60;;
74473;SDS011;62922;-6.168;106.796;2023-07-28T07:38:45;29.02;;;16.60;;
74473;SDS011;62922;-6.168;106.796;2023-07-28T07:41:12;34.97;;;17.77;;
74473;SDS011;62922;-6.168;106.796;2023-07-28T07:43:45;35.15;;;17.45;;
74473;SDS011;62922;-6.168;106.796;2023-07-28T07:46:12;35.05;;;17.02;;
74473;SDS011;62922;-6.168;106.796;2023-07-28T07:48:39;30.67;;;16.00;;
74473;SDS011;62922;-6.168;106.796;2023-07-28T07:51:06;23.88;;;15.90;;
74473;SDS011;62922;-6.168;106.796;2023-07-28T07:53:33;26.58;;;15.77;;
74473;SDS011;62922;-6.168;106.796;2023-07-28T07:56:03;28.90;;;15.75;;
74473;SDS011;62922;-6.168;106.796;2023-07-28T07:58:30;25.60;;;15.35;;
74473;SDS011;62922;-6.168;106.796;2023-07-28T08:00:56;25.95;;;14.32;;
74473;SDS011;62922;-6.168;106.796;2023-07-28T08:03:23;29.52;;;15.48;;
74473;SDS011;62922;-6.168;106.796;2023-07-28T08:05:51;30.77;;;16.50;;
74473;SDS011;62922;-6.168;106.796;2023-07-28T08:08:18;28.02;;;15.27;;
74473;SDS011;62922;-6.168;106.796;2023-07-28T08:10:46;24.88;;;14.90;;
74473;SDS011;62922;-6.168;106.796;2023-07-28T08:13:13;24.92;;;15.63;;
74473;SDS011;62922;-6.168;106.796;2023-07-28T08:15:43;31.70;;;17.08;;
74473;SDS011;62922;-6.168;106.796;2023-07-28T08:18:12;25.02;;;14.52;;
74473;SDS011;62922;-6.168;106.796;2023-07-28T08:20:42;35.88;;;15.45;;
74473;SDS011;62922;-6.168;106.796;2023-07-28T08:23:08;27.67;;;14.70;;
74473;SDS011;62922;-6.168;106.796;2023-07-28T08:25:34;34.22;;;15.77;;
74473;SDS011;62922;-6.168;106.796;2023-07-28T08:28:01;27.02;;;15.05;;
74473;SDS011;62922;-6.168;106.796;2023-07-28T08:30:28;30.15;;;14.45;;
74473;SDS011;62922;-6.168;106.796;2023-07-28T08:32:57;27.80;;;15.50;;
74473;SDS011;62922;-6.168;106.796;2023-07-28T08:35:24;28.55;;;15.27;;
74473;SDS011;62922;-6.168;106.796;2023-07-28T08:37:52;32.63;;;15.88;;
74473;SDS011;62922;-6.168;106.796;2023-07-28T08:40:18;26.70;;;15.18;;
74473;SDS011;62922;-6.168;106.796;2023-07-28T08:42:45;26.65;;;15.63;;
74473;SDS011;62922;-6.168;106.796;2023-07-28T08:45:12;32.65;;;14.75;;
74473;SDS011;62922;-6.168;106.796;2023-07-28T08:47:41;33.83;;;15.80;;
74473;SDS011;62922;-6.168;106.796;2023-07-28T08:50:08;32.50;;;16.45;;
74473;SDS011;62922;-6.168;106.796;2023-07-28T08:52:34;27.17;;;15.02;;
74473;SDS011;62922;-6.168;106.796;2023-07-28T08:55:01;29.02;;;15.45;;
74473;SDS011;62922;-6.168;106.796;2023-07-28T08:57:28;31.23;;;16.63;;
74473;SDS011;62922;-6.168;106.796;2023-07-28T08:59:54;29.92;;;15.27;;
74473;SDS011;62922;-6.168;106.796;2023-07-28T09:02:21;32.60;;;17.27;;
74473;SDS011;62922;-6.168;106.796;2023-07-28T09:04:50;30.58;;;17.45;;
74473;SDS011;62922;-6.168;106.796;2023-07-28T09:07:16;22.88;;;15.23;;
74473;SDS011;62922;-6.168;106.796;2023-07-28T09:09:45;27.30;;;15.80;;
74473;SDS011;62922;-6.168;106.796;2023-07-28T09:12:12;35.08;;;17.35;;
74473;SDS011;62922;-6.168;106.796;2023-07-28T09:14:38;33.75;;;18.60;;
74473;SDS011;62922;-6.168;106.796;2023-07-28T09:17:07;33.85;;;16.50;;
74473;SDS011;62922;-6.168;106.796;2023-07-28T09:19:35;36.28;;;16.80;;
74473;SDS011;62922;-6.168;106.796;2023-07-28T09:22:24;34.83;;;17.35;;
74473;SDS011;62922;-6.168;106.796;2023-07-28T09:24:50;38.47;;;18.25;;
74473;SDS011;62922;-6.168;106.796;2023-07-28T09:27:21;45.17;;;18.05;;
74473;SDS011;62922;-6.168;106.796;2023-07-28T09:29:52;40.42;;;17.77;;
74473;SDS011;62922;-6.168;106.796;2023-07-28T09:32:31;44.33;;;18.75;;
74473;SDS011;62922;-6.168;106.796;2023-07-28T09:35:19;45.78;;;20.33;;
74473;SDS011;62922;-6.168;106.796;2023-07-28T09:37:46;38.47;;;19.75;;
74473;SDS011;62922;-6.168;106.796;2023-07-28T09:40:16;41.83;;;21.08;;
74473;SDS011;62922;-6.168;106.796;2023-07-28T09:42:45;41.60;;;21.10;;
74473;SDS011;62922;-6.168;106.796;2023-07-28T09:45:15;38.88;;;20.17;;
74473;SDS011;62922;-6.168;106.796;2023-07-28T09:47:44;39.60;;;21.00;;
74473;SDS011;62922;-6.168;106.796;2023-07-28T09:50:14;40.72;;;19.88;;
74473;SDS011;62922;-6.168;106.796;2023-07-28T09:52:42;40.65;;;21.23;;
74473;SDS011;62922;-6.168;106.796;2023-07-28T09:55:11;35.08;;;20.70;;
74473;SDS011;62922;-6.168;106.796;2023-07-28T09:57:44;38.05;;;20.60;;
74473;SDS011;62922;-6.168;106.796;2023-07-28T10:00:12;41.25;;;21.42;;
74473;SDS011;62922;-6.168;106.796;2023-07-28T10:02:40;37.58;;;21.83;;
74473;SDS011;62922;-6.168;106.796;2023-07-28T10:05:08;46.30;;;23.15;;
74473;SDS011;62922;-6.168;106.796;2023-07-28T10:07:37;44.42;;;23.73;;
74473;SDS011;62922;-6.168;106.796;2023-07-28T10:10:06;43.03;;;22.42;;
74473;SDS011;62922;-6.168;106.796;2023-07-28T10:12:46;39.38;;;22.80;;
74473;SDS011;62922;-6.168;106.796;2023-07-28T10:15:16;41.78;;;22.88;;
74473;SDS011;62922;-6.168;106.796;2023-07-28T10:17:44;43.25;;;22.88;;
74473;SDS011;62922;-6.168;106.796;2023-07-28T10:25:34;37.50;;;21.40;;
74473;SDS011;62922;-6.168;106.796;2023-07-28T10:28:02;40.22;;;21.30;;
74473;SDS011;62922;-6.168;106.796;2023-07-28T10:30:35;39.25;;;21.83;;
74473;SDS011;62922;-6.168;106.796;2023-07-28T10:33:03;38.53;;;21.13;;
74473;SDS011;62922;-6.168;106.796;2023-07-28T10:35:29;39.45;;;22.23;;
74473;SDS011;62922;-6.168;106.796;2023-07-28T10:37:57;38.63;;;21.45;;
74473;SDS011;62922;-6.168;106.796;2023-07-28T10:43:03;47.10;;;22.52;;
74473;SDS011;62922;-6.168;106.796;2023-07-28T10:45:31;39.33;;;21.98;;
74473;SDS011;62922;-6.168;106.796;2023-07-28T10:47:59;40.58;;;21.17;;
74473;SDS011;62922;-6.168;106.796;2023-07-28T10:50:28;34.75;;;20.27;;
74473;SDS011;62922;-6.168;106.796;2023-07-28T10:52:58;44.55;;;22.73;;
74473;SDS011;62922;-6.168;106.796;2023-07-28T10:55:25;37.40;;;21.80;;
74473;SDS011;62922;-6.168;106.796;2023-07-28T10:57:53;42.13;;;22.90;;
74473;SDS011;62922;-6.168;106.796;2023-07-28T11:00:21;39.85;;;22.55;;
74473;SDS011;62922;-6.168;106.796;2023-07-28T11:02:49;33.45;;;21.20;;
74473;SDS011;62922;-6.168;106.796;2023-07-28T11:05:23;33.92;;;20.17;;
74473;SDS011;62922;-6.168;106.796;2023-07-28T11:07:53;37.33;;;21.90;;
74473;SDS011;62922;-6.168;106.796;2023-07-28T11:10:21;41.25;;;20.55;;
74473;SDS011;62922;-6.168;106.796;2023-07-28T11:12:50;39.60;;;19.88;;
74473;SDS011;62922;-6.168;106.796;2023-07-28T11:15:18;41.25;;;21.05;;
74473;SDS011;62922;-6.168;106.796;2023-07-28T11:17:47;34.08;;;20.25;;
74473;SDS011;62922;-6.168;106.796;2023-07-28T11:22:45;34.40;;;20.73;;
74473;SDS011;62922;-6.168;106.796;2023-07-28T11:25:14;34.50;;;21.15;;
74473;SDS011;62922;-6.168;106.796;2023-07-28T11:27:40;37.67;;;22.40;;
74473;SDS011;62922;-6.168;106.796;2023-07-28T11:30:07;36.35;;;21.38;;
74473;SDS011;62922;-6.168;106.796;2023-07-28T11:32:35;34.78;;;20.88;;
74473;SDS011;62922;-6.168;106.796;2023-07-28T11:35:05;32.00;;;21.50;;
74473;SDS011;62922;-6.168;106.796;2023-07-28T11:37:34;33.25;;;20.67;;
74473;SDS011;62922;-6.168;106.796;2023-07-28T11:40:02;41.97;;;22.50;;
74473;SDS011;62922;-6.168;106.796;2023-07-28T11:42:33;39.65;;;22.77;;
74473;SDS011;62922;-6.168;106.796;2023-07-28T11:45:03;37.35;;;21.67;;
74473;SDS011;62922;-6.168;106.796;2023-07-28T11:47:31;33.88;;;21.85;;
74473;SDS011;62922;-6.168;106.796;2023-07-28T11:49:57;45.28;;;23.33;;
74473;SDS011;62922;-6.168;106.796;2023-07-28T11:52:35;41.58;;;24.73;;
74473;SDS011;62922;-6.168;106.796;2023-07-28T11:55:02;40.75;;;24.40;;
74473;SDS011;62922;-6.168;106.796;2023-07-28T11:57:32;45.88;;;26.80;;
74473;SDS011;62922;-6.168;106.796;2023-07-28T11:59:59;52.28;;;30.45;;
74473;SDS011;62922;-6.168;106.796;2023-07-28T12:02:26;45.67;;;27.15;;
74473;SDS011;62922;-6.168;106.796;2023-07-28T12:04:55;45.92;;;26.92;;
74473;SDS011;62922;-6.168;106.796;2023-07-28T12:07:28;40.38;;;25.92;;
74473;SDS011;62922;-6.168;106.796;2023-07-28T12:10:02;43.47;;;24.48;;
74473;SDS011;62922;-6.168;106.796;2023-07-28T12:12:38;39.78;;;23.65;;
74473;SDS011;62922;-6.168;106.796;2023-07-28T12:15:18;42.25;;;24.15;;
74473;SDS011;62922;-6.168;106.796;2023-07-28T12:23:02;39.55;;;23.98;;
74473;SDS011;62922;-6.168;106.796;2023-07-28T12:25:29;41.80;;;23.38;;
74473;SDS011;62922;-6.168;106.796;2023-07-28T12:27:56;37.85;;;22.05;;
74473;SDS011;62922;-6.168;106.796;2023-07-28T12:30:22;37.65;;;22.17;;
74473;SDS011;62922;-6.168;106.796;2023-07-28T12:32:49;43.78;;;22.52;;
74473;SDS011;62922;-6.168;106.796;2023-07-28T12:35:15;36.17;;;20.67;;
74473;SDS011;62922;-6.168;106.796;2023-07-28T12:37:41;37.03;;;21.25;;
74473;SDS011;62922;-6.168;106.796;2023-07-28T12:40:08;38.75;;;21.00;;
74473;SDS011;62922;-6.168;106.796;2023-07-28T12:42:35;33.70;;;21.17;;
74473;SDS011;62922;-6.168;106.796;2023-07-28T12:45:02;35.38;;;20.77;;
74473;SDS011;62922;-6.168;106.796;2023-07-28T12:47:30;33.47;;;20.15;;
74473;SDS011;62922;-6.168;106.796;2023-07-28T12:49:56;34.83;;;20.13;;
74473;SDS011;62922;-6.168;106.796;2023-07-28T12:52:22;34.95;;;21.17;;
74473;SDS011;62922;-6.168;106.796;2023-07-28T12:54:49;35.13;;;20.77;;
74473;SDS011;62922;-6.168;106.796;2023-07-28T12:57:15;35.15;;;21.13;;
74473;SDS011;62922;-6.168;106.796;2023-07-28T12:59:41;36.10;;;20.75;;
74473;SDS011;62922;-6.168;106.796;2023-07-28T13:02:07;34.17;;;20.08;;
74473;SDS011;62922;-6.168;106.796;2023-07-28T13:04:34;37.72;;;19.73;;
74473;SDS011;62922;-6.168;106.796;2023-07-28T13:07:00;33.53;;;18.90;;
74473;SDS011;62922;-6.168;106.796;2023-07-28T13:09:26;28.92;;;19.00;;
74473;SDS011;62922;-6.168;106.796;2023-07-28T13:11:53;32.38;;;18.58;;
74473;SDS011;62922;-6.168;106.796;2023-07-28T13:14:19;37.55;;;18.92;;
74473;SDS011;62922;-6.168;106.796;2023-07-28T13:16:46;34.38;;;18.48;;
74473;SDS011;62922;-6.168;106.796;2023-07-28T13:19:12;32.90;;;19.65;;
74473;SDS011;62922;-6.168;106.796;2023-07-28T13:21:38;32.88;;;19.48;;
74473;SDS011;62922;-6.168;106.796;2023-07-28T13:24:05;41.42;;;18.88;;
74473;SDS011;62922;-6.168;106.796;2023-07-28T13:26:31;31.23;;;18.15;;
74473;SDS011;62922;-6.168;106.796;2023-07-28T13:28:57;33.90;;;18.13;;
74473;SDS011;62922;-6.168;106.796;2023-07-28T13:31:27;36.33;;;18.83;;
74473;SDS011;62922;-6.168;106.796;2023-07-28T13:33:53;30.80;;;18.08;;
74473;SDS011;62922;-6.168;106.796;2023-07-28T13:36:20;35.08;;;19.00;;
74473;SDS011;62922;-6.168;106.796;2023-07-28T13:38:46;32.53;;;17.80;;
74473;SDS011;62922;-6.168;106.796;2023-07-28T13:41:14;34.55;;;19.20;;
74473;SDS011;62922;-6.168;106.796;2023-07-28T13:43:40;35.17;;;18.70;;
74473;SDS011;62922;-6.168;106.796;2023-07-28T13:46:07;26.45;;;17.60;;
74473;SDS011;62922;-6.168;106.796;2023-07-28T13:48:34;31.48;;;18.08;;
74473;SDS011;62922;-6.168;106.796;2023-07-28T13:51:01;28.00;;;17.85;;
74473;SDS011;62922;-6.168;106.796;2023-07-28T13:53:28;28.13;;;18.23;;
74473;SDS011;62922;-6.168;106.796;2023-07-28T13:55:54;34.45;;;18.13;;
74473;SDS011;62922;-6.168;106.796;2023-07-28T13:58:21;31.15;;;18.25;;
74473;SDS011;62922;-6.168;106.796;2023-07-28T14:00:47;34.28;;;18.17;;
74473;SDS011;62922;-6.168;106.796;2023-07-28T14:03:14;33.85;;;19.20;;
74473;SDS011;62922;-6.168;106.796;2023-07-28T14:05:41;29.70;;;19.02;;
74473;SDS011;62922;-6.168;106.796;2023-07-28T14:08:08;30.92;;;18.35;;
74473;SDS011;62922;-6.168;106.796;2023-07-28T14:10:35;34.00;;;19.65;;
74473;SDS011;62922;-6.168;106.796;2023-07-28T14:13:03;35.55;;;20.02;;
74473;SDS011;62922;-6.168;106.796;2023-07-28T14:15:30;33.72;;;19.98;;